sensor_id;sensor_type;location;lat;lon;timestamp;P1;durP1;ratioP1;P2;durP2;ratioP2
1837;SDS011;918;50.796;6.772;2023-06-05T00:01:26;3.03;;;2.83;;
1837;SDS011;918;50.796;6.772;2023-06-05T00:03:51;3.00;;;2.80;;
1837;SDS011;918;50.796;6.772;2023-06-05T00:06:18;2.97;;;2.77;;
1837;SDS011;918;50.796;6.772;2023-06-05T00:08:43;2.77;;;2.60;;
1837;SDS011;918;50.796;6.772;2023-06-05T00:11:08;3.13;;;2.87;;
1837;SDS011;918;50.796;6.772;2023-06-05T00:13:34;5.27;;;2.90;;
1837;SDS011;918;50.796;6.772;2023-06-05T00:15:59;3.30;;;3.00;;
1837;SDS011;918;50.796;6.772;2023-06-05T00:18:27;2.67;;;2.47;;
1837;SDS011;918;50.796;6.772;2023-06-05T00:20:53;3.20;;;2.60;;
1837;SDS011;918;50.796;6.772;2023-06-05T00:23:18;3.90;;;3.10;;
1837;SDS011;918;50.796;6.772;2023-06-05T00:25:43;2.80;;;2.60;;
1837;SDS011;918;50.796;6.772;2023-06-05T00:28:09;3.80;;;3.40;;
1837;SDS011;918;50.796;6.772;2023-06-05T00:30:34;3.00;;;2.70;;
1837;SDS011;918;50.796;6.772;2023-06-05T00:33:00;3.83;;;3.53;;
1837;SDS011;918;50.796;6.772;2023-06-05T00:35:26;3.23;;;3.03;;
1837;SDS011;918;50.796;6.772;2023-06-05T00:37:51;7.20;;;3.73;;
1837;SDS011;918;50.796;6.772;2023-06-05T00:40:16;3.10;;;2.90;;
1837;SDS011;918;50.796;6.772;2023-06-05T00:42:42;3.53;;;3.23;;
1837;SDS011;918;50.796;6.772;2023-06-05T00:45:07;3.27;;;3.00;;
1837;SDS011;918;50.796;6.772;2023-06-05T00:47:32;3.40;;;3.10;;
1837;SDS011;918;50.796;6.772;2023-06-05T00:49:59;3.70;;;3.40;;
1837;SDS011;918;50.796;6.772;2023-06-05T00:52:25;3.40;;;3.20;;
1837;SDS011;918;50.796;6.772;2023-06-05T00:54:51;3.10;;;2.90;;
1837;SDS011;918;50.796;6.772;2023-06-05T00:57:16;3.30;;;3.10;;
1837;SDS011;918;50.796;6.772;2023-06-05T00:59:42;2.90;;;2.70;;
1837;SDS011;918;50.796;6.772;2023-06-05T01:02:09;3.80;;;3.20;;
1837;SDS011;918;50.796;6.772;2023-06-05T01:04:37;3.73;;;3.43;;
1837;SDS011;918;50.796;6.772;2023-06-05T01:07:05;3.30;;;3.10;;
1837;SDS011;918;50.796;6.772;2023-06-05T01:09:32;3.53;;;3.23;;
1837;SDS011;918;50.796;6.772;2023-06-05T01:12:05;3.10;;;2.80;;
1837;SDS011;918;50.796;6.772;2023-06-05T01:14:34;3.90;;;3.60;;
1837;SDS011;918;50.796;6.772;2023-06-05T01:17:01;3.50;;;3.30;;
1837;SDS011;918;50.796;6.772;2023-06-05T01:19:27;3.57;;;3.27;;
1837;SDS011;918;50.796;6.772;2023-06-05T01:21:57;4.70;;;4.30;;
1837;SDS011;918;50.796;6.772;2023-06-05T01:24:22;3.30;;;3.10;;
1837;SDS011;918;50.796;6.772;2023-06-05T01:29:39;4.30;;;3.50;;
1837;SDS011;918;50.796;6.772;2023-06-05T01:32:28;3.40;;;3.20;;
1837;SDS011;918;50.796;6.772;2023-06-05T01:35:01;4.27;;;3.60;;
1837;SDS011;918;50.796;6.772;2023-06-05T01:37:27;3.17;;;2.97;;
1837;SDS011;918;50.796;6.772;2023-06-05T01:39:54;4.30;;;3.67;;
1837;SDS011;918;50.796;6.772;2023-06-05T01:42:20;3.33;;;3.10;;
1837;SDS011;918;50.796;6.772;2023-06-05T01:44:45;3.57;;;3.27;;
1837;SDS011;918;50.796;6.772;2023-06-05T01:47:11;3.40;;;3.00;;
1837;SDS011;918;50.796;6.772;2023-06-05T01:49:37;4.23;;;3.70;;
1837;SDS011;918;50.796;6.772;2023-06-05T01:52:02;3.70;;;3.40;;
1837;SDS011;918;50.796;6.772;2023-06-05T01:54:28;3.63;;;3.33;;
1837;SDS011;918;50.796;6.772;2023-06-05T01:56:53;3.77;;;3.47;;
1837;SDS011;918;50.796;6.772;2023-06-05T01:59:20;3.97;;;3.67;;
1837;SDS011;918;50.796;6.772;2023-06-05T02:01:46;4.00;;;3.70;;
1837;SDS011;918;50.796;6.772;2023-06-05T02:04:12;4.57;;;4.20;;
1837;SDS011;918;50.796;6.772;2023-06-05T02:06:43;3.73;;;3.50;;
1837;SDS011;918;50.796;6.772;2023-06-05T02:09:09;3.73;;;3.40;;
1837;SDS011;918;50.796;6.772;2023-06-05T02:11:38;3.87;;;3.67;;
1837;SDS011;918;50.796;6.772;2023-06-05T02:14:04;3.73;;;3.43;;
1837;SDS011;918;50.796;6.772;2023-06-05T02:16:31;4.00;;;3.70;;
1837;SDS011;918;50.796;6.772;2023-06-05T02:18:57;3.60;;;3.30;;
1837;SDS011;918;50.796;6.772;2023-06-05T02:21:31;4.60;;;3.43;;
1837;SDS011;918;50.796;6.772;2023-06-05T02:24:00;3.70;;;3.40;;
1837;SDS011;918;50.796;6.772;2023-06-05T02:26:26;4.07;;;3.77;;
1837;SDS011;918;50.796;6.772;2023-06-05T02:28:52;4.07;;;3.70;;
1837;SDS011;918;50.796;6.772;2023-06-05T02:31:21;3.43;;;3.23;;
1837;SDS011;918;50.796;6.772;2023-06-05T02:33:50;3.40;;;3.20;;
1837;SDS011;918;50.796;6.772;2023-06-05T02:36:15;4.07;;;3.50;;
1837;SDS011;918;50.796;6.772;2023-06-05T02:38:41;3.67;;;3.37;;
1837;SDS011;918;50.796;6.772;2023-06-05T02:41:07;4.30;;;4.00;;
1837;SDS011;918;50.796;6.772;2023-06-05T02:43:34;5.20;;;4.40;;
1837;SDS011;918;50.796;6.772;2023-06-05T02:45:59;4.03;;;3.73;;
1837;SDS011;918;50.796;6.772;2023-06-05T02:48:24;4.80;;;3.40;;
1837;SDS011;918;50.796;6.772;2023-06-05T02:50:49;3.57;;;3.37;;
1837;SDS011;918;50.796;6.772;2023-06-05T02:53:15;3.90;;;3.60;;
1837;SDS011;918;50.796;6.772;2023-06-05T02:55:40;3.80;;;3.50;;
1837;SDS011;918;50.796;6.772;2023-06-05T02:58:07;3.80;;;3.50;;
1837;SDS011;918;50.796;6.772;2023-06-05T03:00:32;3.70;;;3.40;;
1837;SDS011;918;50.796;6.772;2023-06-05T03:02:58;3.87;;;3.53;;
1837;SDS011;918;50.796;6.772;2023-06-05T03:05:23;4.50;;;4.20;;
1837;SDS011;918;50.796;6.772;2023-06-05T03:07:49;4.77;;;4.37;;
1837;SDS011;918;50.796;6.772;2023-06-05T03:10:18;3.67;;;3.37;;
1837;SDS011;918;50.796;6.772;2023-06-05T03:12:44;4.07;;;3.27;;
1837;SDS011;918;50.796;6.772;2023-06-05T03:15:09;4.10;;;3.80;;
1837;SDS011;918;50.796;6.772;2023-06-05T03:17:35;4.70;;;4.30;;
1837;SDS011;918;50.796;6.772;2023-06-05T03:20:01;4.20;;;3.90;;
1837;SDS011;918;50.796;6.772;2023-06-05T03:22:27;4.40;;;4.00;;
1837;SDS011;918;50.796;6.772;2023-06-05T03:24:52;3.93;;;3.63;;
1837;SDS011;918;50.796;6.772;2023-06-05T03:27:17;3.90;;;3.60;;
1837;SDS011;918;50.796;6.772;2023-06-05T03:29:42;3.87;;;3.57;;
1837;SDS011;918;50.796;6.772;2023-06-05T03:32:08;4.53;;;2.97;;
1837;SDS011;918;50.796;6.772;2023-06-05T03:34:33;3.73;;;3.40;;
1837;SDS011;918;50.796;6.772;2023-06-05T03:37:01;3.63;;;3.33;;
1837;SDS011;918;50.796;6.772;2023-06-05T03:39:27;4.23;;;3.87;;
1837;SDS011;918;50.796;6.772;2023-06-05T03:41:52;5.20;;;4.07;;
1837;SDS011;918;50.796;6.772;2023-06-05T03:44:17;4.47;;;4.07;;
1837;SDS011;918;50.796;6.772;2023-06-05T03:46:43;4.17;;;3.77;;
1837;SDS011;918;50.796;6.772;2023-06-05T03:49:09;4.10;;;3.60;;
1837;SDS011;918;50.796;6.772;2023-06-05T03:51:35;6.50;;;3.73;;
1837;SDS011;918;50.796;6.772;2023-06-05T03:54:01;3.80;;;3.40;;
1837;SDS011;918;50.796;6.772;2023-06-05T03:56:26;4.53;;;3.93;;
1837;SDS011;918;50.796;6.772;2023-06-05T03:59:02;4.30;;;4.00;;
1837;SDS011;918;50.796;6.772;2023-06-05T04:01:44;4.30;;;3.90;;
1837;SDS011;918;50.796;6.772;2023-06-05T04:04:10;4.10;;;3.70;;
1837;SDS011;918;50.796;6.772;2023-06-05T04:06:35;4.10;;;3.80;;
1837;SDS011;918;50.796;6.772;2023-06-05T04:09:01;5.13;;;3.53;;
1837;SDS011;918;50.796;6.772;2023-06-05T04:11:28;6.67;;;3.90;;
1837;SDS011;918;50.796;6.772;2023-06-05T04:13:53;5.03;;;4.53;;
1837;SDS011;918;50.796;6.772;2023-06-05T04:16:19;6.37;;;4.30;;
1837;SDS011;918;50.796;6.772;2023-06-05T04:18:44;4.60;;;4.20;;
1837;SDS011;918;50.796;6.772;2023-06-05T04:21:10;6.47;;;4.43;;
1837;SDS011;918;50.796;6.772;2023-06-05T04:23:35;10.23;;;6.20;;
1837;SDS011;918;50.796;6.772;2023-06-05T04:26:01;15.70;;;7.40;;
1837;SDS011;918;50.796;6.772;2023-06-05T04:28:28;11.60;;;5.60;;
1837;SDS011;918;50.796;6.772;2023-06-05T04:30:54;17.13;;;6.90;;
1837;SDS011;918;50.796;6.772;2023-06-05T04:33:20;13.50;;;7.00;;
1837;SDS011;918;50.796;6.772;2023-06-05T04:35:45;16.30;;;6.07;;
1837;SDS011;918;50.796;6.772;2023-06-05T04:38:10;5.77;;;3.53;;
1837;SDS011;918;50.796;6.772;2023-06-05T04:40:36;5.23;;;4.73;;
1837;SDS011;918;50.796;6.772;2023-06-05T04:43:01;4.30;;;3.90;;
1837;SDS011;918;50.796;6.772;2023-06-05T04:45:26;6.17;;;4.33;;
1837;SDS011;918;50.796;6.772;2023-06-05T04:47:52;4.57;;;4.23;;
1837;SDS011;918;50.796;6.772;2023-06-05T04:50:23;6.30;;;4.57;;
1837;SDS011;918;50.796;6.772;2023-06-05T04:52:50;5.50;;;4.43;;
1837;SDS011;918;50.796;6.772;2023-06-05T04:55:15;7.93;;;4.47;;
1837;SDS011;918;50.796;6.772;2023-06-05T04:57:41;5.23;;;4.43;;
1837;SDS011;918;50.796;6.772;2023-06-05T05:00:06;5.57;;;5.07;;
1837;SDS011;918;50.796;6.772;2023-06-05T05:02:32;5.60;;;4.40;;
1837;SDS011;918;50.796;6.772;2023-06-05T05:04:58;3.87;;;3.53;;
1837;SDS011;918;50.796;6.772;2023-06-05T05:07:23;4.70;;;4.30;;
1837;SDS011;918;50.796;6.772;2023-06-05T05:09:51;5.47;;;4.77;;
1837;SDS011;918;50.796;6.772;2023-06-05T05:12:16;4.00;;;3.60;;
1837;SDS011;918;50.796;6.772;2023-06-05T05:14:42;6.23;;;3.80;;
1837;SDS011;918;50.796;6.772;2023-06-05T05:17:07;4.80;;;4.30;;
1837;SDS011;918;50.796;6.772;2023-06-05T05:19:33;4.67;;;4.20;;
1837;SDS011;918;50.796;6.772;2023-06-05T05:21:58;5.83;;;4.20;;
1837;SDS011;918;50.796;6.772;2023-06-05T05:24:23;5.00;;;4.07;;
1837;SDS011;918;50.796;6.772;2023-06-05T05:26:50;6.30;;;4.30;;
1837;SDS011;918;50.796;6.772;2023-06-05T05:29:16;4.80;;;4.23;;
1837;SDS011;918;50.796;6.772;2023-06-05T05:31:41;7.33;;;4.00;;
1837;SDS011;918;50.796;6.772;2023-06-05T05:34:07;4.87;;;4.47;;
1837;SDS011;918;50.796;6.772;2023-06-05T05:36:33;5.13;;;4.47;;
1837;SDS011;918;50.796;6.772;2023-06-05T05:38:58;4.50;;;4.10;;
1837;SDS011;918;50.796;6.772;2023-06-05T05:41:23;3.50;;;3.20;;
1837;SDS011;918;50.796;6.772;2023-06-05T05:43:49;6.93;;;3.97;;
1837;SDS011;918;50.796;6.772;2023-06-05T05:46:14;4.73;;;4.33;;
1837;SDS011;918;50.796;6.772;2023-06-05T05:48:39;4.93;;;4.53;;
1837;SDS011;918;50.796;6.772;2023-06-05T05:51:05;6.63;;;4.57;;
1837;SDS011;918;50.796;6.772;2023-06-05T05:53:31;6.00;;;3.90;;
1837;SDS011;918;50.796;6.772;2023-06-05T05:55:56;5.67;;;3.90;;
1837;SDS011;918;50.796;6.772;2023-06-05T05:58:21;4.03;;;3.63;;
1837;SDS011;918;50.796;6.772;2023-06-05T06:00:47;5.43;;;4.03;;
1837;SDS011;918;50.796;6.772;2023-06-05T06:03:12;4.53;;;4.10;;
1837;SDS011;918;50.796;6.772;2023-06-05T06:05:38;3.93;;;3.60;;
1837;SDS011;918;50.796;6.772;2023-06-05T06:08:04;4.57;;;3.83;;
1837;SDS011;918;50.796;6.772;2023-06-05T06:10:30;4.40;;;4.00;;
1837;SDS011;918;50.796;6.772;2023-06-05T06:12:55;4.10;;;3.70;;
1837;SDS011;918;50.796;6.772;2023-06-05T06:15:21;4.60;;;3.77;;
1837;SDS011;918;50.796;6.772;2023-06-05T06:17:47;4.17;;;3.77;;
1837;SDS011;918;50.796;6.772;2023-06-05T06:20:12;3.90;;;3.60;;
1837;SDS011;918;50.796;6.772;2023-06-05T06:22:40;4.53;;;4.13;;
1837;SDS011;918;50.796;6.772;2023-06-05T06:25:07;5.77;;;4.43;;
1837;SDS011;918;50.796;6.772;2023-06-05T06:27:34;5.90;;;4.23;;
1837;SDS011;918;50.796;6.772;2023-06-05T06:29:59;4.77;;;4.00;;
1837;SDS011;918;50.796;6.772;2023-06-05T06:32:24;4.87;;;4.17;;
1837;SDS011;918;50.796;6.772;2023-06-05T06:34:53;5.13;;;4.67;;
1837;SDS011;918;50.796;6.772;2023-06-05T06:37:19;4.50;;;4.07;;
1837;SDS011;918;50.796;6.772;2023-06-05T06:39:45;4.67;;;4.20;;
1837;SDS011;918;50.796;6.772;2023-06-05T06:42:11;4.07;;;3.73;;
1837;SDS011;918;50.796;6.772;2023-06-05T06:44:37;6.27;;;4.03;;
1837;SDS011;918;50.796;6.772;2023-06-05T06:47:03;4.40;;;4.10;;
1837;SDS011;918;50.796;6.772;2023-06-05T06:49:28;5.37;;;4.30;;
1837;SDS011;918;50.796;6.772;2023-06-05T06:51:53;4.30;;;3.80;;
1837;SDS011;918;50.796;6.772;2023-06-05T06:54:19;4.07;;;3.73;;
1837;SDS011;918;50.796;6.772;2023-06-05T06:56:44;5.30;;;4.40;;
1837;SDS011;918;50.796;6.772;2023-06-05T06:59:11;6.30;;;3.60;;
1837;SDS011;918;50.796;6.772;2023-06-05T07:01:43;8.30;;;4.10;;
1837;SDS011;918;50.796;6.772;2023-06-05T07:04:11;6.33;;;4.33;;
1837;SDS011;918;50.796;6.772;2023-06-05T07:06:45;5.40;;;3.83;;
1837;SDS011;918;50.796;6.772;2023-06-05T07:09:11;4.10;;;3.73;;
1837;SDS011;918;50.796;6.772;2023-06-05T07:11:36;4.03;;;3.63;;
1837;SDS011;918;50.796;6.772;2023-06-05T07:14:02;3.77;;;3.30;;
1837;SDS011;918;50.796;6.772;2023-06-05T07:16:27;5.60;;;3.80;;
1837;SDS011;918;50.796;6.772;2023-06-05T07:18:52;4.60;;;4.20;;
1837;SDS011;918;50.796;6.772;2023-06-05T07:21:19;5.93;;;4.40;;
1837;SDS011;918;50.796;6.772;2023-06-05T07:23:47;4.50;;;4.10;;
1837;SDS011;918;50.796;6.772;2023-06-05T07:26:13;4.77;;;3.97;;
1837;SDS011;918;50.796;6.772;2023-06-05T07:28:40;4.23;;;3.50;;
1837;SDS011;918;50.796;6.772;2023-06-05T07:31:06;4.60;;;3.83;;
1837;SDS011;918;50.796;6.772;2023-06-05T07:33:32;6.17;;;4.37;;
1837;SDS011;918;50.796;6.772;2023-06-05T07:35:58;6.30;;;4.10;;
1837;SDS011;918;50.796;6.772;2023-06-05T07:38:24;5.60;;;3.63;;
1837;SDS011;918;50.796;6.772;2023-06-05T07:40:49;5.43;;;4.03;;
1837;SDS011;918;50.796;6.772;2023-06-05T07:43:14;8.87;;;4.00;;
1837;SDS011;918;50.796;6.772;2023-06-05T07:45:40;6.70;;;3.53;;
1837;SDS011;918;50.796;6.772;2023-06-05T07:48:06;5.40;;;3.97;;
1837;SDS011;918;50.796;6.772;2023-06-05T07:50:31;4.37;;;3.70;;
1837;SDS011;918;50.796;6.772;2023-06-05T07:52:56;4.90;;;3.70;;
1837;SDS011;918;50.796;6.772;2023-06-05T07:55:21;5.50;;;4.20;;
1837;SDS011;918;50.796;6.772;2023-06-05T07:57:47;4.87;;;3.70;;
1837;SDS011;918;50.796;6.772;2023-06-05T08:00:12;4.33;;;3.93;;
1837;SDS011;918;50.796;6.772;2023-06-05T08:02:38;4.63;;;3.90;;
1837;SDS011;918;50.796;6.772;2023-06-05T08:05:03;5.13;;;3.40;;
1837;SDS011;918;50.796;6.772;2023-06-05T08:07:31;4.27;;;3.50;;
1837;SDS011;918;50.796;6.772;2023-06-05T08:09:56;6.37;;;4.53;;
1837;SDS011;918;50.796;6.772;2023-06-05T08:12:21;3.70;;;3.40;;
1837;SDS011;918;50.796;6.772;2023-06-05T08:14:47;4.57;;;3.90;;
1837;SDS011;918;50.796;6.772;2023-06-05T08:17:13;8.37;;;3.93;;
1837;SDS011;918;50.796;6.772;2023-06-05T08:19:38;6.70;;;4.40;;
1837;SDS011;918;50.796;6.772;2023-06-05T08:22:04;5.07;;;3.60;;
1837;SDS011;918;50.796;6.772;2023-06-05T08:24:29;4.77;;;3.40;;
1837;SDS011;918;50.796;6.772;2023-06-05T08:26:55;9.27;;;4.03;;
1837;SDS011;918;50.796;6.772;2023-06-05T08:29:21;3.33;;;3.03;;
1837;SDS011;918;50.796;6.772;2023-06-05T08:31:46;7.20;;;3.30;;
1837;SDS011;918;50.796;6.772;2023-06-05T08:34:11;6.30;;;3.20;;
1837;SDS011;918;50.796;6.772;2023-06-05T08:36:37;4.00;;;3.10;;
1837;SDS011;918;50.796;6.772;2023-06-05T08:39:02;6.77;;;2.70;;
1837;SDS011;918;50.796;6.772;2023-06-05T08:41:29;3.73;;;3.40;;
1837;SDS011;918;50.796;6.772;2023-06-05T08:43:56;3.53;;;3.23;;
1837;SDS011;918;50.796;6.772;2023-06-05T08:46:21;4.00;;;3.20;;
1837;SDS011;918;50.796;6.772;2023-06-05T08:48:47;3.57;;;3.20;;
1837;SDS011;918;50.796;6.772;2023-06-05T08:51:16;3.83;;;2.77;;
1837;SDS011;918;50.796;6.772;2023-06-05T08:53:46;3.90;;;2.80;;
1837;SDS011;918;50.796;6.772;2023-06-05T08:56:12;2.80;;;2.60;;
1837;SDS011;918;50.796;6.772;2023-06-05T08:58:38;4.40;;;3.00;;
1837;SDS011;918;50.796;6.772;2023-06-05T09:01:04;2.87;;;2.63;;
1837;SDS011;918;50.796;6.772;2023-06-05T09:03:32;3.17;;;2.87;;
1837;SDS011;918;50.796;6.772;2023-06-05T09:05:57;3.73;;;3.43;;
1837;SDS011;918;50.796;6.772;2023-06-05T09:08:29;3.40;;;3.10;;
1837;SDS011;918;50.796;6.772;2023-06-05T09:13:49;3.60;;;2.73;;
1837;SDS011;918;50.796;6.772;2023-06-05T09:16:14;3.20;;;2.93;;
1837;SDS011;918;50.796;6.772;2023-06-05T09:18:50;3.77;;;3.13;;
1837;SDS011;918;50.796;6.772;2023-06-05T09:21:20;4.17;;;2.93;;
1837;SDS011;918;50.796;6.772;2023-06-05T09:23:45;3.77;;;3.47;;
1837;SDS011;918;50.796;6.772;2023-06-05T09:26:10;3.60;;;3.27;;
1837;SDS011;918;50.796;6.772;2023-06-05T09:28:59;3.50;;;2.77;;
1837;SDS011;918;50.796;6.772;2023-06-05T09:31:27;3.80;;;3.27;;
1837;SDS011;918;50.796;6.772;2023-06-05T09:34:05;3.90;;;3.60;;
1837;SDS011;918;50.796;6.772;2023-06-05T09:36:30;3.47;;;3.17;;
1837;SDS011;918;50.796;6.772;2023-06-05T09:38:59;3.53;;;3.17;;
1837;SDS011;918;50.796;6.772;2023-06-05T09:41:42;3.43;;;2.27;;
1837;SDS011;918;50.796;6.772;2023-06-05T09:44:09;2.50;;;2.30;;
1837;SDS011;918;50.796;6.772;2023-06-05T09:46:34;4.90;;;3.63;;
1837;SDS011;918;50.796;6.772;2023-06-05T09:49:15;3.93;;;3.27;;
1837;SDS011;918;50.796;6.772;2023-06-05T09:51:42;3.80;;;2.67;;
1837;SDS011;918;50.796;6.772;2023-06-05T09:54:07;8.27;;;2.80;;
1837;SDS011;918;50.796;6.772;2023-06-05T09:56:33;3.43;;;2.40;;
1837;SDS011;918;50.796;6.772;2023-06-05T09:58:59;4.20;;;2.90;;
1837;SDS011;918;50.796;6.772;2023-06-05T10:01:25;4.20;;;3.13;;
1837;SDS011;918;50.796;6.772;2023-06-05T10:04:00;3.50;;;3.13;;
1837;SDS011;918;50.796;6.772;2023-06-05T10:06:30;4.80;;;3.43;;
1837;SDS011;918;50.796;6.772;2023-06-05T10:08:57;3.63;;;3.10;;
1837;SDS011;918;50.796;6.772;2023-06-05T10:11:24;3.83;;;3.33;;
1837;SDS011;918;50.796;6.772;2023-06-05T10:13:53;3.57;;;3.27;;
1837;SDS011;918;50.796;6.772;2023-06-05T10:16:19;3.60;;;3.30;;
1837;SDS011;918;50.796;6.772;2023-06-05T10:18:48;3.20;;;3.00;;
1837;SDS011;918;50.796;6.772;2023-06-05T10:21:14;4.70;;;2.60;;
1837;SDS011;918;50.796;6.772;2023-06-05T10:24:04;3.30;;;3.00;;
1837;SDS011;918;50.796;6.772;2023-06-05T10:31:53;4.20;;;2.67;;
1837;SDS011;918;50.796;6.772;2023-06-05T10:34:36;2.57;;;2.37;;
1837;SDS011;918;50.796;6.772;2023-06-05T10:37:30;5.93;;;2.40;;
1837;SDS011;918;50.796;6.772;2023-06-05T10:40:08;3.03;;;2.70;;
1837;SDS011;918;50.796;6.772;2023-06-05T10:42:34;3.30;;;2.60;;
1837;SDS011;918;50.796;6.772;2023-06-05T10:45:00;2.50;;;2.30;;
1837;SDS011;918;50.796;6.772;2023-06-05T10:52:41;2.90;;;2.70;;
1837;SDS011;918;50.796;6.772;2023-06-05T10:55:07;3.67;;;2.63;;
1837;SDS011;918;50.796;6.772;2023-06-05T11:00:20;3.40;;;2.93;;
1837;SDS011;918;50.796;6.772;2023-06-05T11:02:46;2.50;;;2.30;;
1837;SDS011;918;50.796;6.772;2023-06-05T11:05:12;3.50;;;2.87;;
1837;SDS011;918;50.796;6.772;2023-06-05T11:07:37;3.53;;;3.20;;
1837;SDS011;918;50.796;6.772;2023-06-05T11:15:00;2.60;;;2.40;;
1837;SDS011;918;50.796;6.772;2023-06-05T11:17:27;2.63;;;2.43;;
1837;SDS011;918;50.796;6.772;2023-06-05T11:19:56;2.90;;;2.70;;
1837;SDS011;918;50.796;6.772;2023-06-05T11:22:22;2.60;;;2.40;;
1837;SDS011;918;50.796;6.772;2023-06-05T11:25:23;3.70;;;2.40;;
1837;SDS011;918;50.796;6.772;2023-06-05T11:27:42;2.67;;;2.47;;
1837;SDS011;918;50.796;6.772;2023-06-05T11:30:11;3.20;;;2.63;;
1837;SDS011;918;50.796;6.772;2023-06-05T11:32:37;3.00;;;2.67;;
1837;SDS011;918;50.796;6.772;2023-06-05T11:35:03;2.83;;;2.57;;
1837;SDS011;918;50.796;6.772;2023-06-05T11:37:29;2.60;;;2.40;;
1837;SDS011;918;50.796;6.772;2023-06-05T11:39:57;2.70;;;2.50;;
1837;SDS011;918;50.796;6.772;2023-06-05T11:42:23;3.00;;;2.70;;
1837;SDS011;918;50.796;6.772;2023-06-05T11:44:48;2.70;;;2.50;;
1837;SDS011;918;50.796;6.772;2023-06-05T11:47:23;2.60;;;2.40;;
1837;SDS011;918;50.796;6.772;2023-06-05T11:49:49;2.93;;;2.73;;
1837;SDS011;918;50.796;6.772;2023-06-05T11:52:18;5.00;;;3.00;;
1837;SDS011;918;50.796;6.772;2023-06-05T11:54:44;3.30;;;2.77;;
1837;SDS011;918;50.796;6.772;2023-06-05T11:57:18;2.70;;;2.50;;
1837;SDS011;918;50.796;6.772;2023-06-05T11:59:44;2.80;;;2.60;;
1837;SDS011;918;50.796;6.772;2023-06-05T12:02:10;2.60;;;2.40;;
1837;SDS011;918;50.796;6.772;2023-06-05T12:04:36;2.87;;;2.63;;
1837;SDS011;918;50.796;6.772;2023-06-05T12:07:04;2.73;;;2.53;;
1837;SDS011;918;50.796;6.772;2023-06-05T12:09:29;2.60;;;2.47;;
1837;SDS011;918;50.796;6.772;2023-06-05T12:12:04;2.80;;;2.50;;
1837;SDS011;918;50.796;6.772;2023-06-05T12:14:33;5.10;;;2.70;;
1837;SDS011;918;50.796;6.772;2023-06-05T12:16:59;2.50;;;2.30;;
1837;SDS011;918;50.796;6.772;2023-06-05T12:19:25;2.93;;;2.40;;
1837;SDS011;918;50.796;6.772;2023-06-05T12:21:50;2.63;;;2.43;;
1837;SDS011;918;50.796;6.772;2023-06-05T12:24:24;2.50;;;2.30;;
1837;SDS011;918;50.796;6.772;2023-06-05T12:26:53;5.17;;;2.47;;
1837;SDS011;918;50.796;6.772;2023-06-05T12:29:26;3.73;;;2.67;;
1837;SDS011;918;50.796;6.772;2023-06-05T12:31:54;2.70;;;2.50;;
1837;SDS011;918;50.796;6.772;2023-06-05T12:37:09;3.00;;;2.77;;
1837;SDS011;918;50.796;6.772;2023-06-05T12:39:35;5.60;;;3.10;;
1837;SDS011;918;50.796;6.772;2023-06-05T12:42:01;7.43;;;3.47;;
1837;SDS011;918;50.796;6.772;2023-06-05T12:44:27;2.90;;;2.60;;
1837;SDS011;918;50.796;6.772;2023-06-05T12:46:52;3.07;;;2.60;;
1837;SDS011;918;50.796;6.772;2023-06-05T12:49:18;2.97;;;2.77;;
1837;SDS011;918;50.796;6.772;2023-06-05T12:51:43;2.70;;;2.50;;
1837;SDS011;918;50.796;6.772;2023-06-05T12:54:09;2.80;;;2.60;;
1837;SDS011;918;50.796;6.772;2023-06-05T12:56:35;3.23;;;2.93;;
1837;SDS011;918;50.796;6.772;2023-06-05T12:59:01;2.93;;;2.63;;
1837;SDS011;918;50.796;6.772;2023-06-05T13:01:26;3.37;;;2.40;;
1837;SDS011;918;50.796;6.772;2023-06-05T13:03:53;4.20;;;2.97;;
1837;SDS011;918;50.796;6.772;2023-06-05T13:06:19;2.70;;;2.50;;
1837;SDS011;918;50.796;6.772;2023-06-05T13:08:45;2.80;;;2.60;;
1837;SDS011;918;50.796;6.772;2023-06-05T13:11:11;2.93;;;2.60;;
1837;SDS011;918;50.796;6.772;2023-06-05T13:13:37;2.63;;;2.43;;
1837;SDS011;918;50.796;6.772;2023-06-05T13:16:03;2.80;;;2.60;;
1837;SDS011;918;50.796;6.772;2023-06-05T13:18:31;5.70;;;2.87;;
1837;SDS011;918;50.796;6.772;2023-06-05T13:20:57;2.93;;;2.40;;
1837;SDS011;918;50.796;6.772;2023-06-05T13:23:23;2.50;;;2.33;;
1837;SDS011;918;50.796;6.772;2023-06-05T13:25:48;2.83;;;2.53;;
1837;SDS011;918;50.796;6.772;2023-06-05T13:28:14;3.07;;;2.80;;
1837;SDS011;918;50.796;6.772;2023-06-05T13:30:39;4.10;;;2.70;;
1837;SDS011;918;50.796;6.772;2023-06-05T13:33:04;3.03;;;2.67;;
1837;SDS011;918;50.796;6.772;2023-06-05T13:35:30;3.50;;;2.60;;
1837;SDS011;918;50.796;6.772;2023-06-05T13:37:55;3.37;;;2.70;;
1837;SDS011;918;50.796;6.772;2023-06-05T13:40:20;5.60;;;2.90;;
1837;SDS011;918;50.796;6.772;2023-06-05T13:42:46;3.50;;;2.40;;
1837;SDS011;918;50.796;6.772;2023-06-05T13:45:12;3.00;;;2.40;;
1837;SDS011;918;50.796;6.772;2023-06-05T13:47:37;3.20;;;3.00;;
1837;SDS011;918;50.796;6.772;2023-06-05T13:50:03;2.70;;;2.50;;
1837;SDS011;918;50.796;6.772;2023-06-05T13:52:29;4.00;;;3.17;;
1837;SDS011;918;50.796;6.772;2023-06-05T13:54:54;2.70;;;2.50;;
1837;SDS011;918;50.796;6.772;2023-06-05T13:57:19;3.07;;;2.93;;
1837;SDS011;918;50.796;6.772;2023-06-05T13:59:45;4.20;;;2.90;;
1837;SDS011;918;50.796;6.772;2023-06-05T14:02:10;4.50;;;2.90;;
1837;SDS011;918;50.796;6.772;2023-06-05T14:04:36;3.13;;;2.67;;
1837;SDS011;918;50.796;6.772;2023-06-05T14:07:02;3.00;;;2.70;;
1837;SDS011;918;50.796;6.772;2023-06-05T14:09:28;3.03;;;2.83;;
1837;SDS011;918;50.796;6.772;2023-06-05T14:11:53;3.73;;;3.40;;
1837;SDS011;918;50.796;6.772;2023-06-05T14:14:19;3.00;;;2.80;;
1837;SDS011;918;50.796;6.772;2023-06-05T14:16:44;2.60;;;2.50;;
1837;SDS011;918;50.796;6.772;2023-06-05T14:19:09;3.67;;;3.27;;
1837;SDS011;918;50.796;6.772;2023-06-05T14:21:35;3.87;;;2.77;;
1837;SDS011;918;50.796;6.772;2023-06-05T14:24:00;4.67;;;2.90;;
1837;SDS011;918;50.796;6.772;2023-06-05T14:26:26;4.40;;;3.80;;
1837;SDS011;918;50.796;6.772;2023-06-05T14:28:51;2.83;;;2.60;;
1837;SDS011;918;50.796;6.772;2023-06-05T14:31:17;2.90;;;2.70;;
1837;SDS011;918;50.796;6.772;2023-06-05T14:33:42;2.70;;;2.50;;
1837;SDS011;918;50.796;6.772;2023-06-05T14:36:07;6.10;;;3.10;;
1837;SDS011;918;50.796;6.772;2023-06-05T14:38:33;2.80;;;2.60;;
1837;SDS011;918;50.796;6.772;2023-06-05T14:40:58;3.27;;;3.00;;
1837;SDS011;918;50.796;6.772;2023-06-05T14:43:24;3.03;;;2.83;;
1837;SDS011;918;50.796;6.772;2023-06-05T14:45:51;3.20;;;2.40;;
1837;SDS011;918;50.796;6.772;2023-06-05T14:48:16;3.27;;;2.50;;
1837;SDS011;918;50.796;6.772;2023-06-05T14:50:42;3.93;;;2.40;;
1837;SDS011;918;50.796;6.772;2023-06-05T14:53:07;3.77;;;2.70;;
1837;SDS011;918;50.796;6.772;2023-06-05T14:55:32;3.97;;;2.40;;
1837;SDS011;918;50.796;6.772;2023-06-05T14:57:58;3.20;;;2.73;;
1837;SDS011;918;50.796;6.772;2023-06-05T15:00:23;3.00;;;2.80;;
1837;SDS011;918;50.796;6.772;2023-06-05T15:02:48;3.60;;;3.10;;
1837;SDS011;918;50.796;6.772;2023-06-05T15:05:14;3.13;;;2.93;;
1837;SDS011;918;50.796;6.772;2023-06-05T15:07:39;3.40;;;3.10;;
1837;SDS011;918;50.796;6.772;2023-06-05T15:10:06;3.40;;;2.83;;
1837;SDS011;918;50.796;6.772;2023-06-05T15:12:33;2.80;;;2.60;;
1837;SDS011;918;50.796;6.772;2023-06-05T15:14:58;5.87;;;2.70;;
1837;SDS011;918;50.796;6.772;2023-06-05T15:17:23;5.83;;;2.87;;
1837;SDS011;918;50.796;6.772;2023-06-05T15:19:48;4.53;;;2.50;;
1837;SDS011;918;50.796;6.772;2023-06-05T15:22:14;2.40;;;2.30;;
1837;SDS011;918;50.796;6.772;2023-06-05T15:24:39;5.00;;;2.80;;
1837;SDS011;918;50.796;6.772;2023-06-05T15:27:05;2.83;;;2.60;;
1837;SDS011;918;50.796;6.772;2023-06-05T15:29:30;4.27;;;2.93;;
1837;SDS011;918;50.796;6.772;2023-06-05T15:31:55;3.27;;;2.97;;
1837;SDS011;918;50.796;6.772;2023-06-05T15:34:21;3.80;;;3.17;;
1837;SDS011;918;50.796;6.772;2023-06-05T15:36:46;5.47;;;3.03;;
1837;SDS011;918;50.796;6.772;2023-06-05T15:39:11;3.53;;;2.00;;
1837;SDS011;918;50.796;6.772;2023-06-05T15:41:38;4.60;;;2.50;;
1837;SDS011;918;50.796;6.772;2023-06-05T15:44:03;2.87;;;2.67;;
1837;SDS011;918;50.796;6.772;2023-06-05T15:46:29;3.13;;;2.37;;
1837;SDS011;918;50.796;6.772;2023-06-05T15:48:54;3.13;;;2.90;;
1837;SDS011;918;50.796;6.772;2023-06-05T15:51:20;2.80;;;2.60;;
1837;SDS011;918;50.796;6.772;2023-06-05T15:53:45;2.73;;;2.53;;